Time;durP1;ratioP1;P1;durP2;ratioP2;P2;SDS_P1;SDS_P2;PMS_P1;PMS_P2;Temp;Humidity;BMP_temperature;BMP_pressure;BME280_temperature;BME280_humidity;BME280_pressure;Samples;Min_cycle;Max_cycle;Signal;HPM_P1;HPM_P2
2022/03/23 00:01:14;;;;;;;21.73;13.85;;;8.00;96.60;;;;;;5096815;28;20529;-64
2022/03/23 00:03:40;;;;;;;23.70;14.17;;;7.90;97.00;;;;;;5097029;28;20032;-64
2022/03/23 00:06:06;;;;;;;27.38;16.02;;;7.90;97.20;;;;;;5096579;28;20020;-64
2022/03/23 00:08:32;;;;;;;24.15;14.82;;;7.90;97.50;;;;;;5096735;28;20052;-64
2022/03/23 00:10:57;;;;;;;28.43;15.90;;;7.90;97.80;;;;;;5096491;28;20024;-64
2022/03/23 00:13:23;;;;;;;23.93;14.17;;;7.90;97.90;;;;;;5096105;28;20472;-66
2022/03/23 00:15:49;;;;;;;25.17;15.52;;;7.80;98.10;;;;;;5095664;28;20051;-66
2022/03/23 00:18:15;;;;;;;28.23;15.90;;;7.80;98.40;;;;;;5096684;28;20032;-66
2022/03/23 00:20:41;;;;;;;25.20;13.60;;;7.80;98.70;;;;;;5095970;28;20028;-66
2022/03/23 00:23:09;;;;;;;23.52;12.65;;;7.70;99.00;;;;;;5095372;28;20016;-66
2022/03/23 00:25:36;;;;;;;19.85;11.50;;;7.70;99.60;;;;;;5094324;28;20109;-66
2022/03/23 00:28:02;;;;;;;19.40;11.18;;;7.70;99.90;;;;;;5095692;28;20153;-65
2022/03/23 00:30:28;;;;;;;18.33;12.30;;;7.70;99.90;;;;;;5095835;28;20020;-66
2022/03/23 00:32:53;;;;;;;21.47;12.03;;;7.70;99.90;;;;;;5094709;28;20065;-66
2022/03/23 00:35:19;;;;;;;22.27;12.03;;;7.70;99.90;;;;;;5095553;28;20059;-66
2022/03/23 00:37:45;;;;;;;20.13;12.87;;;7.60;99.90;;;;;;5095291;28;20319;-67
2022/03/23 00:40:11;;;;;;;19.98;12.13;;;7.60;99.90;;;;;;5095791;28;20099;-66
2022/03/23 00:42:37;;;;;;;22.27;12.95;;;7.60;99.90;;;;;;5095629;28;20066;-66
2022/03/23 00:45:04;;;;;;;23.83;13.13;;;7.50;99.90;;;;;;5095745;28;20044;-66
2022/03/23 00:47:30;;;;;;;25.25;13.77;;;7.50;99.90;;;;;;5094078;28;20555;-67
2022/03/23 00:49:55;;;;;;;22.00;12.80;;;7.50;99.90;;;;;;5095287;28;20052;-66
2022/03/23 00:52:21;;;;;;;19.95;13.68;;;7.40;99.90;;;;;;5095605;28;20036;-65
2022/03/23 00:54:47;;;;;;;26.07;14.47;;;7.40;99.90;;;;;;5095943;28;20444;-65
2022/03/23 00:57:12;;;;;;;28.33;14.33;;;7.40;99.90;;;;;;5093603;28;20266;-66
2022/03/23 00:59:38;;;;;;;22.67;14.50;;;7.40;99.90;;;;;;5094927;28;20053;-66
2022/03/23 01:02:05;;;;;;;23.47;14.33;;;7.40;99.90;;;;;;5093362;28;20484;-65
2022/03/23 01:04:31;;;;;;;22.85;14.50;;;7.30;99.90;;;;;;5094593;28;20065;-66
2022/03/23 01:06:58;;;;;;;24.60;14.23;;;7.30;99.90;;;;;;5094823;28;20107;-66
2022/03/23 01:09:25;;;;;;;24.73;13.73;;;7.30;99.90;;;;;;5093578;28;20481;-67
2022/03/23 01:11:51;;;;;;;24.88;13.95;;;7.20;99.90;;;;;;5094940;28;20024;-66
2022/03/23 01:14:18;;;;;;;23.05;13.32;;;7.20;99.90;;;;;;5093097;28;20127;-66
2022/03/23 01:16:45;;;;;;;21.88;13.65;;;7.20;99.90;;;;;;5095254;28;20027;-66
2022/03/23 01:19:11;;;;;;;24.00;14.32;;;7.20;99.90;;;;;;5094842;28;20051;-66
2022/03/23 01:21:37;;;;;;;22.17;14.13;;;7.20;99.90;;;;;;5095003;28;20105;-67
2022/03/23 01:24:05;;;;;;;22.33;13.90;;;7.20;99.90;;;;;;5094592;28;20020;-66
2022/03/23 01:26:30;;;;;;;19.10;12.05;;;7.50;99.90;;;;;;5093492;28;20393;-66
2022/03/23 01:28:56;;;;;;;22.67;13.03;;;7.50;99.90;;;;;;5094580;28;20024;-67
2022/03/23 01:31:21;;;;;;;21.63;12.20;;;7.40;99.90;;;;;;5094665;28;20105;-68
2022/03/23 01:33:47;;;;;;;32.17;13.10;;;7.20;99.90;;;;;;5093835;28;20357;-66
2022/03/23 01:36:13;;;;;;;25.35;13.20;;;7.10;99.90;;;;;;5093314;28;20118;-66
2022/03/23 01:38:39;;;;;;;21.47;12.70;;;7.10;99.90;;;;;;5094559;28;20105;-66
2022/03/23 01:41:04;;;;;;;19.30;11.70;;;7.10;99.90;;;;;;5094389;28;20024;-66
2022/03/23 01:43:33;;;;;;;22.07;12.87;;;7.00;99.90;;;;;;5093003;28;20024;-65
2022/03/23 01:46:02;;;;;;;19.13;11.55;;;7.00;99.90;;;;;;5093444;28;20027;-67
2022/03/23 01:48:27;;;;;;;19.85;11.50;;;6.90;99.90;;;;;;5097955;28;20419;-66
2022/03/23 01:50:53;;;;;;;20.27;11.77;;;6.80;99.90;;;;;;5102479;28;20157;-67
2022/03/23 01:53:19;;;;;;;19.73;11.60;;;6.80;99.90;;;;;;5094378;28;20032;-66
2022/03/23 01:55:45;;;;;;;21.77;12.30;;;6.70;99.90;;;;;;5093532;28;20275;-66
2022/03/23 01:58:11;;;;;;;22.52;11.70;;;6.70;99.90;;;;;;5094388;28;20097;-66
2022/03/23 02:00:38;;;;;;;18.97;11.77;;;6.70;99.90;;;;;;5094423;28;20460;-66
2022/03/23 02:03:04;;;;;;;20.48;13.05;;;6.70;99.90;;;;;;5093129;28;20472;-66
2022/03/23 02:05:30;;;;;;;20.50;12.52;;;6.70;99.90;;;;;;5094448;28;20032;-67
2022/03/23 02:07:56;;;;;;;20.00;11.43;;;6.80;99.90;;;;;;5094145;28;20025;-66
2022/03/23 02:10:22;;;;;;;22.15;11.75;;;6.80;99.90;;;;;;5094187;28;20273;-66
2022/03/23 02:12:48;;;;;;;20.33;11.70;;;6.70;99.90;;;;;;5094830;28;20050;-66
2022/03/23 02:15:16;;;;;;;19.67;11.52;;;6.70;99.90;;;;;;5096469;28;20020;-67
2022/03/23 02:17:42;;;;;;;19.13;11.05;;;6.70;99.90;;;;;;5094657;28;20100;-67
2022/03/23 02:20:11;;;;;;;23.63;12.13;;;6.60;99.90;;;;;;5094996;28;20035;-66
2022/03/23 02:22:37;;;;;;;19.20;11.55;;;6.60;99.90;;;;;;5094619;28;20110;-66
2022/03/23 02:25:04;;;;;;;18.73;12.00;;;6.60;99.90;;;;;;5094694;28;20070;-67
2022/03/23 02:27:30;;;;;;;19.58;11.90;;;6.50;99.90;;;;;;5093887;28;20465;-65
2022/03/23 02:29:57;;;;;;;20.45;12.27;;;6.50;99.90;;;;;;5092630;28;20504;-66
2022/03/23 02:32:24;;;;;;;19.75;11.32;;;6.50;99.90;;;;;;5093764;28;20043;-67
2022/03/23 02:34:50;;;;;;;19.67;12.85;;;6.50;99.90;;;;;;5093923;28;20043;-67
2022/03/23 02:37:16;;;;;;;21.13;11.80;;;6.40;99.90;;;;;;5094438;28;20501;-67
2022/03/23 02:39:42;;;;;;;19.42;11.63;;;6.40;99.90;;;;;;5094318;28;20285;-67
2022/03/23 02:42:08;;;;;;;23.27;12.75;;;6.40;99.90;;;;;;5092561;28;20021;-66
2022/03/23 02:44:34;;;;;;;20.73;10.70;;;6.40;99.90;;;;;;5094646;28;20065;-67
2022/03/23 02:47:01;;;;;;;19.45;10.80;;;6.40;99.90;;;;;;5098467;28;20031;-67
2022/03/23 02:49:27;;;;;;;19.02;12.05;;;6.40;99.90;;;;;;5096572;28;20038;-66
2022/03/23 02:51:52;;;;;;;21.47;11.30;;;6.30;99.90;;;;;;5096952;28;20118;-66
2022/03/23 03:03:23;;;;;;;17.15;10.75;;;6.30;99.90;;;;;;5098620;28;20039;-67
2022/03/23 03:05:48;;;;;;;18.08;11.70;;;6.20;99.90;;;;;;5097216;28;20020;-66
2022/03/23 03:10:59;;;;;;;21.73;11.77;;;6.20;99.90;;;;;;5097548;28;20523;-66
2022/03/23 03:13:25;;;;;;;19.63;11.80;;;6.20;99.90;;;;;;5096977;28;20033;-67
2022/03/23 03:15:50;;;;;;;19.37;11.37;;;6.20;99.90;;;;;;5096717;28;20024;-66
2022/03/23 03:18:16;;;;;;;21.33;12.03;;;6.20;99.90;;;;;;5096821;28;20034;-65
2022/03/23 03:20:41;;;;;;;19.63;11.70;;;6.20;99.90;;;;;;5097145;28;20020;-67
2022/03/23 03:23:07;;;;;;;22.17;11.77;;;6.20;99.90;;;;;;5097234;28;20052;-66
2022/03/23 03:25:32;;;;;;;20.10;11.43;;;6.10;99.90;;;;;;5096856;28;20055;-66
2022/03/23 03:27:58;;;;;;;23.93;11.90;;;6.00;99.90;;;;;;5095525;28;20032;-68
2022/03/23 03:30:23;;;;;;;20.70;12.33;;;6.00;99.90;;;;;;5096622;28;20027;-66
2022/03/23 03:32:49;;;;;;;22.87;12.47;;;5.90;99.90;;;;;;5096552;28;20028;-66
2022/03/23 03:35:15;;;;;;;21.93;11.73;;;5.80;99.90;;;;;;5096607;28;20287;-65
2022/03/23 03:37:41;;;;;;;24.00;11.80;;;5.80;99.90;;;;;;5096543;28;20055;-66
2022/03/23 03:40:08;;;;;;;18.70;11.70;;;5.70;99.90;;;;;;5096410;28;20520;-66
2022/03/23 03:42:34;;;;;;;25.88;11.27;;;5.70;99.90;;;;;;5094915;28;20059;-66
2022/03/23 03:45:01;;;;;;;21.75;11.18;;;5.70;99.90;;;;;;5095396;28;20024;-66
2022/03/23 03:47:27;;;;;;;;;;;5.70;99.90;;;;;;5096679;28;20020;-66
2022/03/23 03:49:53;;;;;;;19.05;11.05;;;5.70;99.90;;;;;;5095805;28;20388;-65
2022/03/23 03:52:18;;;;;;;17.08;11.35;;;5.70;99.90;;;;;;5096632;28;20054;-66
2022/03/23 03:54:45;;;;;;;21.00;10.63;;;5.90;99.90;;;;;;5096419;28;20103;-66
2022/03/23 03:57:10;;;;;;;20.67;11.55;;;5.90;99.90;;;;;;5094062;28;20032;-66
2022/03/23 03:59:37;;;;;;;22.05;11.25;;;5.90;99.90;;;;;;5095912;28;20392;-67
2022/03/23 04:02:03;;;;;;;16.80;10.85;;;5.80;99.90;;;;;;5094733;28;20447;-67
2022/03/23 04:04:29;;;;;;;20.42;11.35;;;5.80;99.90;;;;;;5096177;28;20476;-67
2022/03/23 04:06:54;;;;;;;18.40;11.43;;;5.70;99.90;;;;;;5096133;28;20086;-66
2022/03/23 04:09:20;;;;;;;22.10;11.90;;;5.70;99.90;;;;;;5096384;28;20533;-66
2022/03/23 04:11:45;;;;;;;20.73;12.23;;;5.60;99.90;;;;;;5096157;28;20028;-66
2022/03/23 04:14:11;;;;;;;27.97;13.43;;;5.60;99.90;;;;;;5095760;28;20032;-66
2022/03/23 04:16:37;;;;;;;21.80;12.33;;;5.60;99.90;;;;;;5095767;28;20456;-66
2022/03/23 04:19:05;;;;;;;20.10;11.57;;;5.60;99.90;;;;;;5095753;28;20366;-66
2022/03/23 04:21:31;;;;;;;15.35;10.25;;;5.60;99.90;;;;;;5095311;28;20016;-65
2022/03/23 04:23:56;;;;;;;17.75;11.73;;;5.60;99.90;;;;;;5095359;28;20103;-65
2022/03/23 04:26:22;;;;;;;18.90;11.40;;;5.60;99.90;;;;;;5095584;28;20066;-66
2022/03/23 04:28:47;;;;;;;21.97;11.87;;;5.60;99.90;;;;;;5095824;28;20380;-66
2022/03/23 04:31:13;;;;;;;17.57;11.13;;;5.60;99.90;;;;;;5095472;28;20031;-67
2022/03/23 04:33:39;;;;;;;19.23;11.40;;;5.60;99.90;;;;;;5093864;28;20036;-66
2022/03/23 04:36:06;;;;;;;19.80;11.20;;;5.60;99.90;;;;;;5095717;28;20111;-65
2022/03/23 04:38:31;;;;;;;29.50;12.07;;;5.50;99.90;;;;;;5095764;28;20031;-66
2022/03/23 04:40:57;;;;;;;27.45;11.65;;;5.60;99.90;;;;;;5095802;28;20024;-66
2022/03/23 04:43:23;;;;;;;20.23;12.07;;;5.60;99.90;;;;;;5095868;28;20021;-66
2022/03/23 04:45:49;;;;;;;22.27;12.23;;;5.60;99.90;;;;;;5095656;28;20032;-66
2022/03/23 04:48:14;;;;;;;20.97;12.00;;;5.40;99.90;;;;;;5095883;28;20036;-66
2022/03/23 04:50:40;;;;;;;21.17;11.83;;;5.40;99.90;;;;;;5095665;28;20031;-66
2022/03/23 04:53:06;;;;;;;21.58;11.73;;;5.30;99.90;;;;;;5095172;28;20024;-66
2022/03/23 04:55:32;;;;;;;24.60;12.65;;;5.30;99.90;;;;;;5095020;28;20035;-66
2022/03/23 04:58:00;;;;;;;21.47;12.30;;;5.30;99.90;;;;;;5095139;28;20388;-65
2022/03/23 05:00:26;;;;;;;20.17;11.73;;;5.40;99.90;;;;;;5094239;28;20273;-66
2022/03/23 05:02:52;;;;;;;20.92;11.73;;;5.40;99.90;;;;;;5093757;28;20116;-66
2022/03/23 05:05:17;;;;;;;22.67;12.27;;;5.30;99.90;;;;;;5095227;28;20106;-66
2022/03/23 05:07:45;;;;;;;19.80;11.50;;;5.30;99.90;;;;;;5094608;28;20020;-66
2022/03/23 05:10:12;;;;;;;20.95;12.45;;;5.30;99.90;;;;;;5095345;28;20035;-65
2022/03/23 05:12:39;;;;;;;25.25;13.45;;;5.30;99.90;;;;;;5095479;28;20481;-66
2022/03/23 05:15:06;;;;;;;18.95;11.30;;;5.30;99.90;;;;;;5096079;28;20101;-64
2022/03/23 05:17:32;;;;;;;21.77;11.77;;;5.20;99.90;;;;;;5095176;28;20034;-67
2022/03/23 05:19:58;;;;;;;20.45;11.32;;;5.10;99.90;;;;;;5095424;28;20023;-66
2022/03/23 05:22:24;;;;;;;20.27;12.32;;;5.10;99.90;;;;;;5095120;28;20031;-68
2022/03/23 05:24:50;;;;;;;18.33;11.43;;;5.10;99.90;;;;;;5095192;28;20108;-67
2022/03/23 05:27:15;;;;;;;23.03;11.30;;;5.10;99.90;;;;;;5093448;28;20012;-69
2022/03/23 05:29:43;;;;;;;20.63;10.87;;;5.10;99.90;;;;;;5094415;28;20028;-67
2022/03/23 05:32:16;;;;;;;21.17;11.40;;;5.00;99.90;;;;;;5094750;28;20108;-67
2022/03/23 05:34:48;;;;;;;22.02;11.45;;;5.00;99.90;;;;;;5094663;28;20106;-66
2022/03/23 05:37:14;;;;;;;41.22;17.55;;;5.00;99.90;;;;;;5093943;28;20089;-66
2022/03/23 05:39:40;;;;;;;25.00;11.75;;;4.90;99.90;;;;;;5094629;28;20044;-66
2022/03/23 05:42:07;;;;;;;22.40;12.82;;;4.90;99.90;;;;;;5095680;28;20109;-67
2022/03/23 05:44:34;;;;;;;25.52;13.45;;;4.90;99.90;;;;;;5093307;28;20090;-66
2022/03/23 05:47:00;;;;;;;25.85;14.77;;;4.90;99.90;;;;;;5093131;28;20133;-66
2022/03/23 05:49:25;;;;;;;20.13;11.13;;;4.90;99.90;;;;;;5094300;28;20024;-66
2022/03/23 05:51:52;;;;;;;24.93;11.50;;;4.90;99.90;;;;;;5093062;28;20023;-67
2022/03/23 05:54:18;;;;;;;22.63;11.88;;;5.00;99.90;;;;;;5093143;28;20408;-67
2022/03/23 05:56:43;;;;;;;23.33;12.77;;;5.00;99.90;;;;;;5092892;28;20020;-66
2022/03/23 05:59:09;;;;;;;24.17;12.43;;;5.00;99.90;;;;;;5094294;28;20094;-66
2022/03/23 06:01:35;;;;;;;32.43;12.40;;;5.00;99.90;;;;;;5094403;28;20024;-66
2022/03/23 06:04:01;;;;;;;33.88;17.75;;;5.00;99.90;;;;;;5094156;28;20020;-66
2022/03/23 06:06:26;;;;;;;23.93;14.83;;;5.00;99.90;;;;;;5094441;28;20380;-67
2022/03/23 06:08:52;;;;;;;24.03;14.17;;;5.10;99.90;;;;;;5095582;28;20262;-68
2022/03/23 06:11:17;;;;;;;28.70;13.30;;;5.10;99.90;;;;;;5095393;28;20047;-68
2022/03/23 06:13:44;;;;;;;25.00;11.80;;;5.20;99.90;;;;;;5107978;22;20082;-66
2022/03/23 06:16:10;;;;;;;23.00;12.30;;;5.30;99.90;;;;;;5093323;28;20081;-64
2022/03/23 06:18:36;;;;;;;33.20;16.08;;;5.30;99.90;;;;;;5093532;28;20030;-64
2022/03/23 06:21:03;;;;;;;23.75;13.20;;;5.30;99.90;;;;;;5093838;28;20333;-64
2022/03/23 06:23:29;;;;;;;22.25;12.38;;;5.40;99.90;;;;;;5093524;28;20020;-64
2022/03/23 06:25:55;;;;;;;22.70;12.35;;;5.40;99.90;;;;;;5075199;28;20027;-65
2022/03/23 06:28:23;;;;;;;26.98;13.43;;;5.40;99.90;;;;;;5075094;28;20043;-64
2022/03/23 06:30:53;;;;;;;21.95;13.25;;;5.40;99.90;;;;;;5093312;28;20131;-64
2022/03/23 06:33:19;;;;;;;27.77;13.05;;;5.50;99.90;;;;;;5093103;28;20483;-65
2022/03/23 06:35:45;;;;;;;;;;;5.90;99.90;;;;;;5093966;28;20024;-63
2022/03/23 06:38:12;;;;;;;27.50;12.05;;;6.00;99.90;;;;;;5093147;28;20348;-65
2022/03/23 06:40:37;;;;;;;18.83;11.77;;;5.90;99.90;;;;;;5075143;28;20016;-65
2022/03/23 06:43:03;;;;;;;23.00;13.27;;;5.90;99.90;;;;;;5093459;28;20371;-65
2022/03/23 06:45:29;;;;;;;23.95;13.73;;;5.90;99.90;;;;;;5092944;28;20026;-64
2022/03/23 06:47:55;;;;;;;21.80;12.60;;;5.90;99.90;;;;;;5092952;28;20452;-66
2022/03/23 06:50:21;;;;;;;21.40;12.73;;;5.90;99.90;;;;;;5092900;28;20024;-65
2022/03/23 06:52:47;;;;;;;18.77;11.83;;;5.90;99.90;;;;;;5092857;28;20388;-65
2022/03/23 06:55:12;;;;;;;21.93;13.00;;;5.90;99.90;;;;;;5074630;28;20016;-65
2022/03/23 06:57:38;;;;;;;23.40;14.20;;;6.00;99.90;;;;;;5093062;28;20035;-65
2022/03/23 07:00:12;;;;;;;21.90;13.03;;;5.90;99.90;;;;;;5074898;28;20450;-66
2022/03/23 07:02:39;;;;;;;25.15;13.35;;;6.00;99.90;;;;;;5074762;28;20089;-66
2022/03/23 07:05:05;;;;;;;24.75;14.00;;;6.10;99.90;;;;;;5074500;28;20055;-65
2022/03/23 07:07:31;;;;;;;26.33;14.13;;;6.10;99.90;;;;;;5092887;28;20362;-65
2022/03/23 07:09:56;;;;;;;22.13;13.17;;;6.20;99.90;;;;;;5093295;28;20035;-65
2022/03/23 07:12:22;;;;;;;23.53;13.70;;;6.20;99.90;;;;;;5074672;28;20024;-65
2022/03/23 07:14:48;;;;;;;29.20;14.13;;;6.30;99.90;;;;;;5092787;28;20032;-66
2022/03/23 07:17:13;;;;;;;21.33;12.80;;;6.40;99.90;;;;;;5092760;28;20028;-65
2022/03/23 07:19:39;;;;;;;25.90;13.77;;;6.50;99.90;;;;;;5074492;28;20650;-64
2022/03/23 07:22:05;;;;;;;24.53;13.13;;;6.50;99.90;;;;;;5092707;28;20012;-66
2022/03/23 07:24:31;;;;;;;22.42;12.75;;;6.70;99.90;;;;;;5092665;28;20130;-65
2022/03/23 07:26:56;;;;;;;20.37;12.33;;;6.70;99.90;;;;;;5092574;28;20032;-64
2022/03/23 07:29:22;;;;;;;21.03;13.40;;;6.90;99.90;;;;;;5074535;28;20055;-65
2022/03/23 07:31:47;;;;;;;20.30;12.63;;;7.00;99.90;;;;;;5094390;28;20115;-64
2022/03/23 07:34:18;;;;;;;19.43;13.23;;;7.10;99.90;;;;;;5096390;28;20388;-64
2022/03/23 07:36:44;;;;;;;20.20;12.98;;;7.40;99.90;;;;;;5096813;28;20028;-64
2022/03/23 07:39:10;;;;;;;24.85;14.43;;;7.50;99.90;;;;;;5096316;28;20024;-64
2022/03/23 07:41:35;;;;;;;23.43;13.33;;;7.60;99.90;;;;;;5096904;28;20032;-64
2022/03/23 07:44:01;;;;;;;23.83;13.87;;;7.50;99.90;;;;;;5096753;28;20273;-64
2022/03/23 07:46:29;;;;;;;25.83;14.37;;;7.50;99.90;;;;;;5096549;28;20099;-64
2022/03/23 07:48:54;;;;;;;25.48;14.32;;;7.50;99.90;;;;;;5096540;28;20088;-64
2022/03/23 07:51:20;;;;;;;21.90;12.30;;;7.60;99.90;;;;;;5096664;28;20032;-65
2022/03/23 07:53:45;;;;;;;24.90;13.67;;;7.70;99.90;;;;;;5096318;28;20381;-64
2022/03/23 07:56:11;;;;;;;21.73;12.93;;;8.00;99.90;;;;;;5096191;28;20461;-64
2022/03/23 07:58:36;;;;;;;23.73;13.37;;;8.00;99.90;;;;;;5095702;28;20054;-64
2022/03/23 08:01:02;;;;;;;23.30;13.00;;;8.00;99.90;;;;;;5096062;28;20032;-63
2022/03/23 08:03:27;;;;;;;22.17;14.00;;;8.00;99.90;;;;;;5096366;28;20055;-63
2022/03/23 08:05:53;;;;;;;23.53;13.57;;;8.10;99.90;;;;;;5077933;28;20388;-64
2022/03/23 08:08:18;;;;;;;21.13;13.53;;;8.20;99.90;;;;;;5095964;28;20024;-62
2022/03/23 08:10:44;;;;;;;18.77;12.40;;;8.30;99.90;;;;;;5096248;28;20023;-63
2022/03/23 08:13:10;;;;;;;19.90;12.40;;;8.40;99.90;;;;;;5096095;28;20027;-65
2022/03/23 08:15:37;;;;;;;20.65;11.77;;;8.60;99.50;;;;;;5095551;28;20077;-62
2022/03/23 08:18:04;;;;;;;22.58;12.52;;;8.70;98.90;;;;;;5095986;28;20483;-64
2022/03/23 08:20:32;;;;;;;17.67;12.18;;;8.80;98.50;;;;;;5096018;28;20060;-64
2022/03/23 08:23:08;;;;;;;21.65;11.93;;;8.60;98.70;;;;;;5095939;28;20024;-64
2022/03/23 08:25:38;;;;;;;20.15;11.70;;;8.90;98.60;;;;;;5096930;28;20091;-64
2022/03/23 08:28:05;;;;;;;19.40;10.65;;;8.80;98.10;;;;;;5078220;28;20024;-64
2022/03/23 08:30:31;;;;;;;21.10;12.02;;;8.90;97.80;;;;;;5096048;28;20016;-63
2022/03/23 08:32:57;;;;;;;20.38;12.10;;;8.80;97.70;;;;;;5096141;28;20020;-64
2022/03/23 08:35:24;;;;;;;18.17;11.13;;;8.70;98.10;;;;;;5095640;28;20072;-64
2022/03/23 08:37:50;;;;;;;21.58;11.60;;;8.70;98.00;;;;;;5095398;28;20253;-63
2022/03/23 08:40:16;;;;;;;19.67;12.02;;;8.70;97.80;;;;;;5095041;28;20078;-65
2022/03/23 08:42:42;;;;;;;21.50;12.10;;;8.80;97.70;;;;;;5095140;28;20077;-62
2022/03/23 08:45:09;;;;;;;21.10;12.73;;;8.90;97.60;;;;;;5095120;28;20090;-64
2022/03/23 08:47:38;;;;;;;18.35;11.23;;;9.10;97.60;;;;;;5094937;28;20586;-64
2022/03/23 08:50:04;;;;;;;24.02;13.45;;;9.20;97.30;;;;;;5094987;28;20024;-64
2022/03/23 08:52:30;;;;;;;17.90;11.48;;;9.60;96.30;;;;;;5095196;28;20365;-64
2022/03/23 08:54:55;;;;;;;22.15;13.95;;;10.40;94.90;;;;;;5095113;28;20035;-64
2022/03/23 08:57:22;;;;;;;18.60;12.17;;;11.40;93.20;;;;;;5095075;28;20517;-64
2022/03/23 08:59:48;;;;;;;26.92;12.57;;;12.80;90.70;;;;;;5076532;28;20100;-65
2022/03/23 09:02:14;;;;;;;21.02;13.05;;;13.40;83.30;;;;;;5095145;28;20028;-63
2022/03/23 09:04:40;;;;;;;20.67;11.90;;;14.20;79.90;;;;;;5094809;28;20069;-64
2022/03/23 09:07:06;;;;;;;19.63;12.02;;;16.20;74.70;;;;;;5095007;28;20036;-62
2022/03/23 09:09:31;;;;;;;21.90;13.60;;;18.90;67.40;;;;;;5094819;28;20032;-65
2022/03/23 09:11:57;;;;;;;24.48;13.40;;;21.50;59.60;;;;;;5094478;28;20423;-64
2022/03/23 09:14:22;;;;;;;;;;;23.30;54.30;;;;;;5094697;28;20032;-65
2022/03/23 09:16:48;;;;;;;18.83;13.35;;;24.60;49.80;;;;;;5094250;28;20002;-65
2022/03/23 09:19:19;;;;;;;18.08;14.02;;;24.10;48.50;;;;;;5076108;28;20384;-64
2022/03/23 09:21:49;;;;;;;18.35;13.45;;;24.40;47.70;;;;;;5094391;28;20021;-64
2022/03/23 09:24:15;;;;;;;20.05;13.38;;;24.80;48.30;;;;;;5076610;28;20027;-65
2022/03/23 09:26:41;;;;;;;18.00;14.90;;;25.90;48.50;;;;;;5095274;28;20464;-64
2022/03/23 09:29:10;;;;;;;17.08;13.90;;;26.30;45.60;;;;;;5076419;28;20034;-64
2022/03/23 09:31:36;;;;;;;18.15;14.52;;;27.00;45.20;;;;;;5094344;28;20036;-64
2022/03/23 09:34:05;;;;;;;19.65;14.35;;;27.70;43.50;;;;;;5094100;28;20040;-64
2022/03/23 09:39:16;;;;;;;17.23;13.98;;;28.00;42.00;;;;;;5094268;28;20057;-65
2022/03/23 09:41:43;;;;;;;18.73;14.70;;;28.20;41.50;;;;;;5093903;28;20047;-65
2022/03/23 09:44:10;;;;;;;20.00;14.25;;;27.40;41.50;;;;;;5093753;28;20106;-65
2022/03/23 09:46:35;;;;;;;18.65;14.50;;;27.00;41.50;;;;;;5093756;28;20057;-64
2022/03/23 09:49:02;;;;;;;22.35;14.73;;;26.70;42.20;;;;;;5094230;28;20028;-65
2022/03/23 09:51:31;;;;;;;21.45;14.82;;;27.20;41.80;;;;;;5093816;28;20028;-65
2022/03/23 09:53:58;;;;;;;19.25;15.90;;;28.20;41.40;;;;;;5093275;28;20027;-65
2022/03/23 09:56:23;;;;;;;23.40;14.82;;;29.00;40.90;;;;;;5075648;28;20039;-64
2022/03/23 09:58:49;;;;;;;20.02;15.15;;;30.30;39.80;;;;;;5093418;28;20024;-65
2022/03/23 10:01:30;;;;;;;20.10;14.93;;;31.50;39.00;;;;;;5093913;28;20063;-64
2022/03/23 10:04:18;;;;;;;18.33;13.20;;;31.60;38.20;;;;;;5093922;28;20024;-64
2022/03/23 10:07:08;;;;;;;17.27;14.98;;;32.40;36.90;;;;;;5094000;28;20017;-66
2022/03/23 10:10:43;;;;;;;16.90;13.77;;;32.40;37.00;;;;;;5093591;28;20039;-65
2022/03/23 10:13:46;;;;;;;17.73;15.63;;;31.60;36.00;;;;;;5093302;28;20034;-65
2022/03/23 10:16:49;;;;;;;18.83;13.98;;;30.50;36.70;;;;;;5093515;28;20511;-65
2022/03/23 10:19:15;;;;;;;19.38;16.38;;;29.40;37.70;;;;;;5093950;28;20473;-65
2022/03/23 10:21:41;;;;;;;20.08;15.82;;;29.10;38.20;;;;;;5093521;28;20099;-65
2022/03/23 10:24:06;;;;;;;17.35;15.02;;;29.70;37.60;;;;;;5093227;28;20030;-67
2022/03/23 10:26:38;;;;;;;18.58;15.05;;;29.90;37.20;;;;;;5075445;28;20141;-65
2022/03/23 10:29:10;;;;;;;18.35;14.85;;;29.90;36.90;;;;;;5075389;28;20030;-66
2022/03/23 10:31:36;;;;;;;18.52;14.98;;;30.60;37.00;;;;;;5093501;28;20023;-65
2022/03/23 10:34:08;;;;;;;18.95;14.77;;;31.40;36.80;;;;;;5093714;28;20024;-65
2022/03/23 10:36:49;;;;;;;17.23;15.38;;;31.30;36.40;;;;;;5093463;28;20540;-65
2022/03/23 10:39:16;;;;;;;18.70;15.70;;;31.80;36.20;;;;;;5075397;28;20054;-65
2022/03/23 10:41:43;;;;;;;20.25;15.57;;;31.00;36.20;;;;;;5093364;28;20047;-66
2022/03/23 10:44:18;;;;;;;18.80;15.07;;;30.00;36.30;;;;;;5093044;28;20381;-65
2022/03/23 10:46:44;;;;;;;21.10;16.05;;;29.50;37.30;;;;;;5093240;28;20486;-66
2022/03/23 10:49:11;;;;;;;18.50;14.98;;;29.40;37.00;;;;;;5093182;28;20035;-66
2022/03/23 10:51:37;;;;;;;16.70;14.43;;;30.20;37.00;;;;;;5093192;28;20020;-65
2022/03/23 10:54:18;;;;;;;17.35;14.60;;;30.60;35.70;;;;;;5093194;28;20107;-65
2022/03/23 10:56:44;;;;;;;17.90;14.98;;;30.40;35.10;;;;;;5094433;28;20035;-65
2022/03/23 10:59:16;;;;;;;16.38;14.45;;;30.30;35.30;;;;;;5092915;28;20032;-65
2022/03/23 11:01:57;;;;;;;17.25;14.63;;;30.20;35.90;;;;;;5093319;28;20066;-65
2022/03/23 11:04:24;;;;;;;19.50;16.00;;;29.70;35.80;;;;;;5092940;28;20143;-65
2022/03/23 11:06:50;;;;;;;18.00;16.10;;;29.20;36.50;;;;;;5096379;28;20020;-66
2022/03/23 11:18:08;;;;;;;22.05;16.45;;;25.20;38.50;;;;;;5097009;28;20027;-65
2022/03/23 11:20:54;;;;;;;20.88;16.10;;;23.30;40.30;;;;;;5096520;28;20540;-61
2022/03/23 11:23:19;;;;;;;29.52;16.60;;;21.60;41.50;;;;;;5096766;28;20086;-63
2022/03/23 11:25:45;;;;;;;;;;;20.20;43.80;;;;;;5097265;28;20476;-63
2022/03/23 11:28:13;;;;;;;22.50;16.48;;;19.60;44.70;;;;;;5078363;28;20337;-64
2022/03/23 11:30:39;;;;;;;22.42;15.98;;;19.30;45.00;;;;;;5079574;28;20472;-63
2022/03/23 11:33:10;;;;;;;25.20;15.45;;;18.80;45.90;;;;;;5098546;28;20028;-64
2022/03/23 11:35:39;;;;;;;23.35;15.90;;;18.30;46.80;;;;;;5098836;28;20031;-64
2022/03/23 11:38:10;;;;;;;22.40;15.25;;;18.20;47.20;;;;;;5096846;28;20142;-63
2022/03/23 11:40:36;;;;;;;22.10;14.05;;;18.10;47.50;;;;;;5096563;28;20068;-63
2022/03/23 11:43:01;;;;;;;25.63;17.20;;;18.00;47.60;;;;;;5078164;28;20020;-63
2022/03/23 11:45:27;;;;;;;21.33;14.73;;;17.70;47.90;;;;;;5077829;28;20029;-62
2022/03/23 11:48:05;;;;;;;23.30;14.35;;;17.30;48.90;;;;;;5078233;28;20031;-64
2022/03/23 11:51:05;;;;;;;19.40;14.85;;;17.30;49.80;;;;;;5077852;28;20028;-64
2022/03/23 11:53:49;;;;;;;23.63;15.77;;;17.20;49.50;;;;;;5096439;28;20379;-64
2022/03/23 11:56:31;;;;;;;25.52;15.00;;;17.30;50.60;;;;;;5096463;28;20032;-65
2022/03/23 11:59:18;;;;;;;23.02;15.13;;;17.20;50.00;;;;;;5095736;28;20024;-63
2022/03/23 12:01:44;;;;;;;25.52;14.80;;;17.30;50.10;;;;;;5096049;28;20070;-62
2022/03/23 12:04:17;;;;;;;41.60;20.67;;;17.30;50.20;;;;;;5095787;28;20124;-63
2022/03/23 12:06:44;;;;;;;23.63;14.27;;;17.40;50.30;;;;;;5095466;28;20024;-64
2022/03/23 12:09:28;;;;;;;30.42;19.13;;;17.40;49.60;;;;;;5077203;28;20400;-62
2022/03/23 12:11:54;;;;;;;19.15;14.35;;;17.50;50.20;;;;;;5077146;28;20061;-63
2022/03/23 12:14:23;;;;;;;26.38;16.10;;;17.50;49.60;;;;;;5098089;22;20334;-67
2022/03/23 12:16:52;;;;;;;24.77;14.80;;;17.50;48.90;;;;;;5095208;28;20093;-66
2022/03/23 12:19:57;;;;;;;39.40;28.00;;;17.50;49.70;;;;;;5095459;28;20035;-67
2022/03/23 12:22:40;;;;;;;22.92;14.57;;;17.40;49.90;;;;;;5095505;28;20024;-66
2022/03/23 12:25:20;;;;;;;22.85;14.07;;;17.20;49.40;;;;;;5095271;28;20031;-67
2022/03/23 12:27:49;;;;;;;28.15;14.18;;;17.30;49.60;;;;;;5100189;28;20016;-66
2022/03/23 12:30:24;;;;;;;20.60;13.93;;;17.40;49.50;;;;;;5095857;28;20062;-67
2022/03/23 12:32:50;;;;;;;22.23;15.38;;;17.50;49.00;;;;;;5098272;28;20118;-67
2022/03/23 12:35:27;;;;;;;30.48;14.85;;;17.60;49.50;;;;;;5097852;28;20081;-67
2022/03/23 12:37:56;;;;;;;21.25;14.43;;;17.60;48.40;;;;;;5098104;28;20035;-66
2022/03/23 12:40:24;;;;;;;20.25;14.13;;;17.60;48.30;;;;;;5094591;28;20082;-67
2022/03/23 12:42:52;;;;;;;20.33;13.77;;;17.70;48.30;;;;;;5095155;28;20016;-65
2022/03/23 12:45:34;;;;;;;18.23;12.65;;;17.80;48.20;;;;;;5095895;28;20476;-66
2022/03/23 12:57:49;;;;;;;20.98;13.27;;;17.90;47.90;;;;;;5095303;28;20020;-67
2022/03/23 12:59:19;;;;;;;19.00;13.32;;;18.10;46.90;;;;;;5095396;28;20035;-67
2022/03/23 13:01:54;;;;;;;20.38;13.35;;;18.20;46.90;;;;;;5094822;28;20487;-66
2022/03/23 13:04:45;;;;;;;15.35;12.18;;;18.30;46.70;;;;;;5095098;28;20027;-70
2022/03/23 13:07:32;;;;;;;11.02;8.57;;;18.30;44.30;;;;;;5093339;28;20058;-66
2022/03/23 13:10:10;;;;;;;10.02;7.90;;;18.30;42.50;;;;;;5094860;28;20040;-67
2022/03/23 13:12:40;;;;;;;11.20;8.35;;;18.30;40.70;;;;;;5094997;28;20024;-72